sensor_id;sensor_type;location;lat;lon;timestamp;temperature;humidity
1453;DHT22;720;47.738;7.998;2023-07-22T00:00:44;13.00;99.90
1453;DHT22;720;47.738;7.998;2023-07-22T00:03:09;12.80;99.90
1453;DHT22;720;47.738;7.998;2023-07-22T00:05:35;12.80;99.90
1453;DHT22;720;47.738;7.998;2023-07-22T00:08:01;12.90;99.90
1453;DHT22;720;47.738;7.998;2023-07-22T00:10:26;12.90;99.90
1453;DHT22;720;47.738;7.998;2023-07-22T00:12:52;12.90;99.90
1453;DHT22;720;47.738;7.998;2023-07-22T00:15:18;12.90;99.90
1453;DHT22;720;47.738;7.998;2023-07-22T00:17:45;12.80;99.90
1453;DHT22;720;47.738;7.998;2023-07-22T00:20:11;12.70;99.90
1453;DHT22;720;47.738;7.998;2023-07-22T00:22:38;12.60;99.90
1453;DHT22;720;47.738;7.998;2023-07-22T00:25:06;12.60;99.90
1453;DHT22;720;47.738;7.998;2023-07-22T00:27:33;12.70;99.90
1453;DHT22;720;47.738;7.998;2023-07-22T00:29:58;12.80;99.90
1453;DHT22;720;47.738;7.998;2023-07-22T00:32:24;12.70;99.90
1453;DHT22;720;47.738;7.998;2023-07-22T00:34:50;12.80;99.90
1453;DHT22;720;47.738;7.998;2023-07-22T00:37:16;12.40;99.90
1453;DHT22;720;47.738;7.998;2023-07-22T00:39:42;12.60;99.90
1453;DHT22;720;47.738;7.998;2023-07-22T00:42:07;12.50;99.90
1453;DHT22;720;47.738;7.998;2023-07-22T00:44:33;12.60;99.90
1453;DHT22;720;47.738;7.998;2023-07-22T00:46:59;12.60;99.90
1453;DHT22;720;47.738;7.998;2023-07-22T00:49:26;12.60;99.90
1453;DHT22;720;47.738;7.998;2023-07-22T00:51:53;12.50;99.90
1453;DHT22;720;47.738;7.998;2023-07-22T00:54:19;12.50;99.90
1453;DHT22;720;47.738;7.998;2023-07-22T00:56:45;12.50;99.90
1453;DHT22;720;47.738;7.998;2023-07-22T00:59:13;12.50;99.90
1453;DHT22;720;47.738;7.998;2023-07-22T01:01:40;12.50;99.90
1453;DHT22;720;47.738;7.998;2023-07-22T01:04:05;12.50;99.90
1453;DHT22;720;47.738;7.998;2023-07-22T01:06:32;12.60;99.90
1453;DHT22;720;47.738;7.998;2023-07-22T01:09:00;12.50;99.90
1453;DHT22;720;47.738;7.998;2023-07-22T01:11:25;12.50;99.90
1453;DHT22;720;47.738;7.998;2023-07-22T01:13:51;12.40;99.90
1453;DHT22;720;47.738;7.998;2023-07-22T01:16:23;12.40;99.90
1453;DHT22;720;47.738;7.998;2023-07-22T01:18:49;12.50;99.90
1453;DHT22;720;47.738;7.998;2023-07-22T01:21:15;12.60;99.90
1453;DHT22;720;47.738;7.998;2023-07-22T01:23:42;12.70;99.90
1453;DHT22;720;47.738;7.998;2023-07-22T01:26:07;12.70;99.90
1453;DHT22;720;47.738;7.998;2023-07-22T01:28:35;12.80;99.90
1453;DHT22;720;47.738;7.998;2023-07-22T01:31:01;12.80;99.90
1453;DHT22;720;47.738;7.998;2023-07-22T01:33:26;12.80;99.90
1453;DHT22;720;47.738;7.998;2023-07-22T01:35:53;12.80;99.90
1453;DHT22;720;47.738;7.998;2023-07-22T01:38:19;12.80;99.90
1453;DHT22;720;47.738;7.998;2023-07-22T01:40:44;12.80;99.90
1453;DHT22;720;47.738;7.998;2023-07-22T01:43:10;12.90;99.90
1453;DHT22;720;47.738;7.998;2023-07-22T01:45:36;12.90;99.90
1453;DHT22;720;47.738;7.998;2023-07-22T01:48:03;12.90;99.90
1453;DHT22;720;47.738;7.998;2023-07-22T01:50:29;12.80;99.90
1453;DHT22;720;47.738;7.998;2023-07-22T01:52:54;12.80;99.90
1453;DHT22;720;47.738;7.998;2023-07-22T01:55:20;12.80;99.90
1453;DHT22;720;47.738;7.998;2023-07-22T01:57:46;12.80;99.90
1453;DHT22;720;47.738;7.998;2023-07-22T02:00:12;12.90;99.90
1453;DHT22;720;47.738;7.998;2023-07-22T02:02:38;12.90;99.90
1453;DHT22;720;47.738;7.998;2023-07-22T02:05:04;12.90;99.90
1453;DHT22;720;47.738;7.998;2023-07-22T02:07:29;12.80;99.90
1453;DHT22;720;47.738;7.998;2023-07-22T02:09:56;12.90;99.90
1453;DHT22;720;47.738;7.998;2023-07-22T02:12:22;12.80;99.90
1453;DHT22;720;47.738;7.998;2023-07-22T02:14:47;12.60;99.90
1453;DHT22;720;47.738;7.998;2023-07-22T02:17:13;12.60;99.90
1453;DHT22;720;47.738;7.998;2023-07-22T02:19:38;12.60;99.90
1453;DHT22;720;47.738;7.998;2023-07-22T02:22:05;12.60;99.90
1453;DHT22;720;47.738;7.998;2023-07-22T02:24:31;12.60;99.90
1453;DHT22;720;47.738;7.998;2023-07-22T02:26:57;12.60;99.90
1453;DHT22;720;47.738;7.998;2023-07-22T02:29:22;12.50;99.90
1453;DHT22;720;47.738;7.998;2023-07-22T02:31:48;12.50;99.90
1453;DHT22;720;47.738;7.998;2023-07-22T02:34:16;12.60;99.90
1453;DHT22;720;47.738;7.998;2023-07-22T02:36:42;12.50;99.90
1453;DHT22;720;47.738;7.998;2023-07-22T02:39:07;12.40;99.90
1453;DHT22;720;47.738;7.998;2023-07-22T02:41:36;12.50;99.90
1453;DHT22;720;47.738;7.998;2023-07-22T02:44:02;12.40;99.90
1453;DHT22;720;47.738;7.998;2023-07-22T02:46:28;12.40;99.90
1453;DHT22;720;47.738;7.998;2023-07-22T02:48:54;12.30;99.90
1453;DHT22;720;47.738;7.998;2023-07-22T02:51:20;12.40;99.90
1453;DHT22;720;47.738;7.998;2023-07-22T02:53:46;12.40;99.90
1453;DHT22;720;47.738;7.998;2023-07-22T02:56:12;12.30;99.90
1453;DHT22;720;47.738;7.998;2023-07-22T02:58:38;12.30;99.90
1453;DHT22;720;47.738;7.998;2023-07-22T03:01:04;12.20;99.90
1453;DHT22;720;47.738;7.998;2023-07-22T03:03:34;12.20;99.90
1453;DHT22;720;47.738;7.998;2023-07-22T03:06:00;12.20;99.90
1453;DHT22;720;47.738;7.998;2023-07-22T03:08:26;12.20;99.90
1453;DHT22;720;47.738;7.998;2023-07-22T03:10:52;12.20;99.90
1453;DHT22;720;47.738;7.998;2023-07-22T03:13:17;12.30;99.90
1453;DHT22;720;47.738;7.998;2023-07-22T03:15:43;12.30;99.90
1453;DHT22;720;47.738;7.998;2023-07-22T03:18:09;12.30;99.90
1453;DHT22;720;47.738;7.998;2023-07-22T03:20:38;12.20;99.90
1453;DHT22;720;47.738;7.998;2023-07-22T03:23:04;12.20;99.90
1453;DHT22;720;47.738;7.998;2023-07-22T03:25:30;12.30;99.90
1453;DHT22;720;47.738;7.998;2023-07-22T03:27:57;12.20;99.90
1453;DHT22;720;47.738;7.998;2023-07-22T03:30:23;12.20;99.90
1453;DHT22;720;47.738;7.998;2023-07-22T03:32:49;12.30;99.90
1453;DHT22;720;47.738;7.998;2023-07-22T03:35:18;12.30;99.90
1453;DHT22;720;47.738;7.998;2023-07-22T03:37:43;12.20;99.90
1453;DHT22;720;47.738;7.998;2023-07-22T03:40:10;12.10;99.90
1453;DHT22;720;47.738;7.998;2023-07-22T03:42:49;12.10;99.90
1453;DHT22;720;47.738;7.998;2023-07-22T03:45:15;12.00;99.90
1453;DHT22;720;47.738;7.998;2023-07-22T03:47:41;12.00;99.90
1453;DHT22;720;47.738;7.998;2023-07-22T03:50:07;12.10;99.90
1453;DHT22;720;47.738;7.998;2023-07-22T03:52:33;12.00;99.90
1453;DHT22;720;47.738;7.998;2023-07-22T03:55:00;12.10;99.90
1453;DHT22;720;47.738;7.998;2023-07-22T03:57:27;12.10;99.90
1453;DHT22;720;47.738;7.998;2023-07-22T03:59:54;12.10;99.90
1453;DHT22;720;47.738;7.998;2023-07-22T04:02:19;12.10;99.90
1453;DHT22;720;47.738;7.998;2023-07-22T04:04:45;12.10;99.90
1453;DHT22;720;47.738;7.998;2023-07-22T04:07:11;11.90;99.90
1453;DHT22;720;47.738;7.998;2023-07-22T04:09:36;12.00;99.90
1453;DHT22;720;47.738;7.998;2023-07-22T04:12:02;12.10;99.90
1453;DHT22;720;47.738;7.998;2023-07-22T04:14:28;12.10;99.90
1453;DHT22;720;47.738;7.998;2023-07-22T04:16:54;12.00;99.90
1453;DHT22;720;47.738;7.998;2023-07-22T04:19:19;12.10;99.90
1453;DHT22;720;47.738;7.998;2023-07-22T04:21:45;12.20;99.90
1453;DHT22;720;47.738;7.998;2023-07-22T04:24:10;12.30;99.90
1453;DHT22;720;47.738;7.998;2023-07-22T04:26:36;12.40;99.90
1453;DHT22;720;47.738;7.998;2023-07-22T04:29:02;12.30;99.90
1453;DHT22;720;47.738;7.998;2023-07-22T04:31:27;12.30;99.90
1453;DHT22;720;47.738;7.998;2023-07-22T04:33:53;12.30;99.90
1453;DHT22;720;47.738;7.998;2023-07-22T04:36:18;12.40;99.90
1453;DHT22;720;47.738;7.998;2023-07-22T04:38:44;12.40;99.90
1453;DHT22;720;47.738;7.998;2023-07-22T04:41:10;12.40;99.90
1453;DHT22;720;47.738;7.998;2023-07-22T04:43:35;12.50;99.90
1453;DHT22;720;47.738;7.998;2023-07-22T04:46:01;12.50;99.90
1453;DHT22;720;47.738;7.998;2023-07-22T04:48:27;12.50;99.90
1453;DHT22;720;47.738;7.998;2023-07-22T04:50:52;12.90;99.90
1453;DHT22;720;47.738;7.998;2023-07-22T04:53:18;13.40;99.90
1453;DHT22;720;47.738;7.998;2023-07-22T04:55:44;13.90;99.90
1453;DHT22;720;47.738;7.998;2023-07-22T04:58:10;14.30;99.90
1453;DHT22;720;47.738;7.998;2023-07-22T05:00:36;14.50;99.90
1453;DHT22;720;47.738;7.998;2023-07-22T05:03:03;14.60;99.90
1453;DHT22;720;47.738;7.998;2023-07-22T05:05:28;14.60;99.90
1453;DHT22;720;47.738;7.998;2023-07-22T05:07:54;14.60;99.90
1453;DHT22;720;47.738;7.998;2023-07-22T05:10:20;14.90;99.90
1453;DHT22;720;47.738;7.998;2023-07-22T05:12:46;15.40;99.90
1453;DHT22;720;47.738;7.998;2023-07-22T05:15:12;16.00;99.90
1453;DHT22;720;47.738;7.998;2023-07-22T05:17:38;16.50;98.50
1453;DHT22;720;47.738;7.998;2023-07-22T05:20:06;16.80;97.30
1453;DHT22;720;47.738;7.998;2023-07-22T05:22:35;16.90;97.60
1453;DHT22;720;47.738;7.998;2023-07-22T05:25:00;17.00;97.80
1453;DHT22;720;47.738;7.998;2023-07-22T05:27:26;17.30;99.90
1453;DHT22;720;47.738;7.998;2023-07-22T05:29:52;17.30;96.40
1453;DHT22;720;47.738;7.998;2023-07-22T05:32:17;17.20;95.90
1453;DHT22;720;47.738;7.998;2023-07-22T05:34:43;17.20;96.10
1453;DHT22;720;47.738;7.998;2023-07-22T05:37:08;17.20;99.90
1453;DHT22;720;47.738;7.998;2023-07-22T05:39:34;17.10;97.00
1453;DHT22;720;47.738;7.998;2023-07-22T05:42:00;17.10;96.80
1453;DHT22;720;47.738;7.998;2023-07-22T05:44:25;17.20;96.40
1453;DHT22;720;47.738;7.998;2023-07-22T05:46:51;17.40;96.60
1453;DHT22;720;47.738;7.998;2023-07-22T05:49:17;17.40;96.20
1453;DHT22;720;47.738;7.998;2023-07-22T05:51:42;17.20;96.00
1453;DHT22;720;47.738;7.998;2023-07-22T05:54:08;17.30;96.70
1453;DHT22;720;47.738;7.998;2023-07-22T05:56:34;17.70;96.80
1453;DHT22;720;47.738;7.998;2023-07-22T05:58:59;18.10;96.80
1453;DHT22;720;47.738;7.998;2023-07-22T06:01:25;18.60;96.20
1453;DHT22;720;47.738;7.998;2023-07-22T06:03:51;19.20;95.10
1453;DHT22;720;47.738;7.998;2023-07-22T06:06:17;19.50;94.20
1453;DHT22;720;47.738;7.998;2023-07-22T06:08:42;19.50;93.60
1453;DHT22;720;47.738;7.998;2023-07-22T06:11:08;19.50;93.60
1453;DHT22;720;47.738;7.998;2023-07-22T06:13:33;19.40;93.80
1453;DHT22;720;47.738;7.998;2023-07-22T06:15:59;19.40;94.30
1453;DHT22;720;47.738;7.998;2023-07-22T06:18:25;19.50;94.60
1453;DHT22;720;47.738;7.998;2023-07-22T06:20:50;19.90;93.70
1453;DHT22;720;47.738;7.998;2023-07-22T06:23:16;20.40;93.60
1453;DHT22;720;47.738;7.998;2023-07-22T06:25:42;21.00;93.00
1453;DHT22;720;47.738;7.998;2023-07-22T06:28:08;21.40;91.40
1453;DHT22;720;47.738;7.998;2023-07-22T06:30:34;21.90;91.50
1453;DHT22;720;47.738;7.998;2023-07-22T06:33:00;22.80;90.80
1453;DHT22;720;47.738;7.998;2023-07-22T06:35:25;24.00;86.70
1453;DHT22;720;47.738;7.998;2023-07-22T06:37:51;25.40;82.40
1453;DHT22;720;47.738;7.998;2023-07-22T06:40:17;26.90;78.30
1453;DHT22;720;47.738;7.998;2023-07-22T06:42:43;28.30;74.10
1453;DHT22;720;47.738;7.998;2023-07-22T06:45:09;29.50;67.20
1453;DHT22;720;47.738;7.998;2023-07-22T06:47:34;30.50;62.10
1453;DHT22;720;47.738;7.998;2023-07-22T06:50:05;30.90;57.00
1453;DHT22;720;47.738;7.998;2023-07-22T06:52:33;31.00;57.00
1453;DHT22;720;47.738;7.998;2023-07-22T06:54:59;31.20;56.00
1453;DHT22;720;47.738;7.998;2023-07-22T06:57:25;30.80;73.20
1453;DHT22;720;47.738;7.998;2023-07-22T06:59:55;30.70;55.00
1453;DHT22;720;47.738;7.998;2023-07-22T07:02:21;29.90;56.70
1453;DHT22;720;47.738;7.998;2023-07-22T07:04:47;28.90;56.60
1453;DHT22;720;47.738;7.998;2023-07-22T07:07:13;27.60;72.80
1453;DHT22;720;47.738;7.998;2023-07-22T07:09:39;27.70;59.80
1453;DHT22;720;47.738;7.998;2023-07-22T07:12:06;27.00;59.20
1453;DHT22;720;47.738;7.998;2023-07-22T07:14:33;26.20;62.50
1453;DHT22;720;47.738;7.998;2023-07-22T07:17:00;25.60;65.50
1453;DHT22;720;47.738;7.998;2023-07-22T07:19:28;25.40;64.90
1453;DHT22;720;47.738;7.998;2023-07-22T07:21:54;25.00;65.80
1453;DHT22;720;47.738;7.998;2023-07-22T07:24:20;24.50;66.80
1453;DHT22;720;47.738;7.998;2023-07-22T07:26:46;23.70;70.00
1453;DHT22;720;47.738;7.998;2023-07-22T07:29:12;23.10;71.70
1453;DHT22;720;47.738;7.998;2023-07-22T07:31:38;22.60;72.50
1453;DHT22;720;47.738;7.998;2023-07-22T07:34:04;22.40;74.20
1453;DHT22;720;47.738;7.998;2023-07-22T07:36:29;22.10;77.20
1453;DHT22;720;47.738;7.998;2023-07-22T07:38:55;21.80;77.10
1453;DHT22;720;47.738;7.998;2023-07-22T07:41:21;21.30;75.80
1453;DHT22;720;47.738;7.998;2023-07-22T07:43:47;21.00;76.50
1453;DHT22;720;47.738;7.998;2023-07-22T07:46:22;20.70;82.80
1453;DHT22;720;47.738;7.998;2023-07-22T07:48:59;20.30;87.70
1453;DHT22;720;47.738;7.998;2023-07-22T07:51:30;20.00;84.40
1453;DHT22;720;47.738;7.998;2023-07-22T07:53:57;20.00;87.70
1453;DHT22;720;47.738;7.998;2023-07-22T07:56:24;20.10;92.00
1453;DHT22;720;47.738;7.998;2023-07-22T07:58:52;19.70;91.20
1453;DHT22;720;47.738;7.998;2023-07-22T08:01:18;19.70;93.20
1453;DHT22;720;47.738;7.998;2023-07-22T08:03:44;19.80;93.00
1453;DHT22;720;47.738;7.998;2023-07-22T08:06:10;19.80;93.50
1453;DHT22;720;47.738;7.998;2023-07-22T08:08:36;20.60;91.40
1453;DHT22;720;47.738;7.998;2023-07-22T08:11:11;22.60;85.20
1453;DHT22;720;47.738;7.998;2023-07-22T08:13:38;24.30;79.00
1453;DHT22;720;47.738;7.998;2023-07-22T08:16:06;25.10;75.80
1453;DHT22;720;47.738;7.998;2023-07-22T08:18:32;25.10;70.40
1453;DHT22;720;47.738;7.998;2023-07-22T08:20:58;25.50;73.00
1453;DHT22;720;47.738;7.998;2023-07-22T08:23:24;26.90;72.70
1453;DHT22;720;47.738;7.998;2023-07-22T08:25:50;28.40;63.20
1453;DHT22;720;47.738;7.998;2023-07-22T08:28:16;29.30;61.10
1453;DHT22;720;47.738;7.998;2023-07-22T08:30:42;30.60;56.50
1453;DHT22;720;47.738;7.998;2023-07-22T08:33:11;31.90;52.20
1453;DHT22;720;47.738;7.998;2023-07-22T08:35:38;32.10;50.00
1453;DHT22;720;47.738;7.998;2023-07-22T08:38:04;32.70;52.30
1453;DHT22;720;47.738;7.998;2023-07-22T08:40:38;32.70;50.00
1453;DHT22;720;47.738;7.998;2023-07-22T08:43:05;32.80;48.90
1453;DHT22;720;47.738;7.998;2023-07-22T08:45:32;32.10;46.80
1453;DHT22;720;47.738;7.998;2023-07-22T08:48:05;30.70;48.30
1453;DHT22;720;47.738;7.998;2023-07-22T08:53:04;28.50;53.20
1453;DHT22;720;47.738;7.998;2023-07-22T08:55:30;29.30;51.10
1453;DHT22;720;47.738;7.998;2023-07-22T08:57:57;29.10;47.70
1453;DHT22;720;47.738;7.998;2023-07-22T09:00:24;28.10;51.80
1453;DHT22;720;47.738;7.998;2023-07-22T09:02:50;27.30;50.00
1453;DHT22;720;47.738;7.998;2023-07-22T09:05:16;27.70;50.60
1453;DHT22;720;47.738;7.998;2023-07-22T09:07:43;28.50;53.70
1453;DHT22;720;47.738;7.998;2023-07-22T09:10:09;29.40;49.80
1453;DHT22;720;47.738;7.998;2023-07-22T09:12:35;29.20;50.80
1453;DHT22;720;47.738;7.998;2023-07-22T09:15:14;29.00;48.20
1453;DHT22;720;47.738;7.998;2023-07-22T09:17:41;29.90;46.70
1453;DHT22;720;47.738;7.998;2023-07-22T09:20:07;30.60;45.10
1453;DHT22;720;47.738;7.998;2023-07-22T09:22:34;31.20;42.90
1453;DHT22;720;47.738;7.998;2023-07-22T09:25:27;30.90;44.90
1453;DHT22;720;47.738;7.998;2023-07-22T09:27:55;30.50;43.70
1453;DHT22;720;47.738;7.998;2023-07-22T09:30:35;30.00;45.40
1453;DHT22;720;47.738;7.998;2023-07-22T09:33:03;29.80;43.60
1453;DHT22;720;47.738;7.998;2023-07-22T09:38:08;29.20;47.20
1453;DHT22;720;47.738;7.998;2023-07-22T09:40:33;29.50;49.50
1453;DHT22;720;47.738;7.998;2023-07-22T09:43:01;29.60;45.10
1453;DHT22;720;47.738;7.998;2023-07-22T09:45:29;30.10;46.00
1453;DHT22;720;47.738;7.998;2023-07-22T09:47:55;30.30;44.80
1453;DHT22;720;47.738;7.998;2023-07-22T09:50:23;29.20;44.10
1453;DHT22;720;47.738;7.998;2023-07-22T09:52:53;29.00;45.70
1453;DHT22;720;47.738;7.998;2023-07-22T09:55:21;29.30;43.40
1453;DHT22;720;47.738;7.998;2023-07-22T09:57:51;29.80;48.40
1453;DHT22;720;47.738;7.998;2023-07-22T10:00:17;30.10;42.10
1453;DHT22;720;47.738;7.998;2023-07-22T10:02:48;30.00;44.70
1453;DHT22;720;47.738;7.998;2023-07-22T10:05:18;29.80;43.50
1453;DHT22;720;47.738;7.998;2023-07-22T10:07:47;29.40;45.00
1453;DHT22;720;47.738;7.998;2023-07-22T10:10:15;29.60;47.30
1453;DHT22;720;47.738;7.998;2023-07-22T10:12:42;29.10;44.70
1453;DHT22;720;47.738;7.998;2023-07-22T10:15:13;29.10;46.80
1453;DHT22;720;47.738;7.998;2023-07-22T10:17:40;29.30;44.60
1453;DHT22;720;47.738;7.998;2023-07-22T10:20:07;30.00;44.40
1453;DHT22;720;47.738;7.998;2023-07-22T10:22:37;30.80;45.20
1453;DHT22;720;47.738;7.998;2023-07-22T10:25:06;30.60;44.50
1453;DHT22;720;47.738;7.998;2023-07-22T10:27:37;30.10;44.20
1453;DHT22;720;47.738;7.998;2023-07-22T10:30:10;30.00;44.20
1453;DHT22;720;47.738;7.998;2023-07-22T10:32:40;29.90;45.10
1453;DHT22;720;47.738;7.998;2023-07-22T10:35:17;30.00;44.80
1453;DHT22;720;47.738;7.998;2023-07-22T10:37:47;30.50;47.20
1453;DHT22;720;47.738;7.998;2023-07-22T10:40:26;30.60;44.90
1453;DHT22;720;47.738;7.998;2023-07-22T10:43:04;30.50;45.90
1453;DHT22;720;47.738;7.998;2023-07-22T10:45:32;29.90;43.70
1453;DHT22;720;47.738;7.998;2023-07-22T10:48:06;29.20;44.50
1453;DHT22;720;47.738;7.998;2023-07-22T10:56:11;28.60;48.00
1453;DHT22;720;47.738;7.998;2023-07-22T11:12:16;27.60;47.60
1453;DHT22;720;47.738;7.998;2023-07-22T11:14:49;27.30;47.20
1453;DHT22;720;47.738;7.998;2023-07-22T11:17:16;26.70;57.70
1453;DHT22;720;47.738;7.998;2023-07-22T11:19:43;27.00;47.70
1453;DHT22;720;47.738;7.998;2023-07-22T11:22:08;26.90;47.80
1453;DHT22;720;47.738;7.998;2023-07-22T11:24:36;26.70;46.20
1453;DHT22;720;47.738;7.998;2023-07-22T11:27:08;26.50;50.70
1453;DHT22;720;47.738;7.998;2023-07-22T11:29:34;26.10;51.20
1453;DHT22;720;47.738;7.998;2023-07-22T11:32:01;25.90;51.00
1453;DHT22;720;47.738;7.998;2023-07-22T11:34:27;26.10;50.30
1453;DHT22;720;47.738;7.998;2023-07-22T11:36:54;26.20;50.40
1453;DHT22;720;47.738;7.998;2023-07-22T11:39:21;26.30;48.60
1453;DHT22;720;47.738;7.998;2023-07-22T11:41:48;26.40;51.20
1453;DHT22;720;47.738;7.998;2023-07-22T11:44:19;26.20;49.90
1453;DHT22;720;47.738;7.998;2023-07-22T11:46:56;25.60;49.30
1453;DHT22;720;47.738;7.998;2023-07-22T11:51:54;25.80;51.40
1453;DHT22;720;47.738;7.998;2023-07-22T11:54:21;25.90;52.30
1453;DHT22;720;47.738;7.998;2023-07-22T11:56:47;25.60;50.60
1453;DHT22;720;47.738;7.998;2023-07-22T11:59:12;25.60;52.40
1453;DHT22;720;47.738;7.998;2023-07-22T12:01:38;25.50;50.60
1453;DHT22;720;47.738;7.998;2023-07-22T12:04:14;25.60;50.90
1453;DHT22;720;47.738;7.998;2023-07-22T12:06:41;25.10;51.20
1453;DHT22;720;47.738;7.998;2023-07-22T12:09:08;24.70;52.20
1453;DHT22;720;47.738;7.998;2023-07-22T12:11:35;24.70;53.70
1453;DHT22;720;47.738;7.998;2023-07-22T12:14:12;24.80;53.80
1453;DHT22;720;47.738;7.998;2023-07-22T12:16:40;25.20;52.60
1453;DHT22;720;47.738;7.998;2023-07-22T12:19:07;25.40;51.60
1453;DHT22;720;47.738;7.998;2023-07-22T12:21:33;25.40;52.80
1453;DHT22;720;47.738;7.998;2023-07-22T12:23:59;25.00;51.20
1453;DHT22;720;47.738;7.998;2023-07-22T12:26:25;24.70;53.70
1453;DHT22;720;47.738;7.998;2023-07-22T12:28:51;24.40;51.90
1453;DHT22;720;47.738;7.998;2023-07-22T12:31:17;24.40;54.70
1453;DHT22;720;47.738;7.998;2023-07-22T12:33:43;24.60;54.90
1453;DHT22;720;47.738;7.998;2023-07-22T12:36:08;24.80;52.30
1453;DHT22;720;47.738;7.998;2023-07-22T12:38:34;24.90;51.70
1453;DHT22;720;47.738;7.998;2023-07-22T12:41:01;25.00;51.20
1453;DHT22;720;47.738;7.998;2023-07-22T12:43:26;25.10;53.50
1453;DHT22;720;47.738;7.998;2023-07-22T12:45:52;25.10;52.80
1453;DHT22;720;47.738;7.998;2023-07-22T12:48:18;25.20;53.80
1453;DHT22;720;47.738;7.998;2023-07-22T12:50:44;25.10;52.70
1453;DHT22;720;47.738;7.998;2023-07-22T12:53:10;25.10;54.60
1453;DHT22;720;47.738;7.998;2023-07-22T12:55:35;25.00;54.30
1453;DHT22;720;47.738;7.998;2023-07-22T12:58:01;24.70;53.60
1453;DHT22;720;47.738;7.998;2023-07-22T13:00:27;24.70;53.00
1453;DHT22;720;47.738;7.998;2023-07-22T13:02:53;24.80;53.70
1453;DHT22;720;47.738;7.998;2023-07-22T13:05:19;24.60;53.60
1453;DHT22;720;47.738;7.998;2023-07-22T13:07:45;24.70;54.30
1453;DHT22;720;47.738;7.998;2023-07-22T13:10:11;24.80;53.00
1453;DHT22;720;47.738;7.998;2023-07-22T13:12:39;24.50;54.70
1453;DHT22;720;47.738;7.998;2023-07-22T13:15:05;24.50;53.00
1453;DHT22;720;47.738;7.998;2023-07-22T13:17:33;24.60;54.00
1453;DHT22;720;47.738;7.998;2023-07-22T13:20:02;24.30;53.20
1453;DHT22;720;47.738;7.998;2023-07-22T13:22:32;24.30;53.50
1453;DHT22;720;47.738;7.998;2023-07-22T13:24:58;24.30;53.60
1453;DHT22;720;47.738;7.998;2023-07-22T13:27:23;24.30;72.90
1453;DHT22;720;47.738;7.998;2023-07-22T13:29:49;24.30;52.50
1453;DHT22;720;47.738;7.998;2023-07-22T13:32:14;24.20;55.70
1453;DHT22;720;47.738;7.998;2023-07-22T13:34:40;24.20;52.90
1453;DHT22;720;47.738;7.998;2023-07-22T13:37:06;24.30;54.50
1453;DHT22;720;47.738;7.998;2023-07-22T13:39:32;24.20;54.00
1453;DHT22;720;47.738;7.998;2023-07-22T13:41:57;24.30;54.90
1453;DHT22;720;47.738;7.998;2023-07-22T13:44:23;24.30;52.20
1453;DHT22;720;47.738;7.998;2023-07-22T13:46:48;24.30;55.60
1453;DHT22;720;47.738;7.998;2023-07-22T13:49:14;24.40;53.10
1453;DHT22;720;47.738;7.998;2023-07-22T13:51:41;24.50;52.70
1453;DHT22;720;47.738;7.998;2023-07-22T13:54:06;24.60;53.90
1453;DHT22;720;47.738;7.998;2023-07-22T13:56:32;24.70;53.40
1453;DHT22;720;47.738;7.998;2023-07-22T13:59:00;24.70;53.90
1453;DHT22;720;47.738;7.998;2023-07-22T14:01:26;24.60;56.60
1453;DHT22;720;47.738;7.998;2023-07-22T14:03:52;24.30;54.20
1453;DHT22;720;47.738;7.998;2023-07-22T14:06:17;24.00;52.40
1453;DHT22;720;47.738;7.998;2023-07-22T14:08:43;24.10;53.00
1453;DHT22;720;47.738;7.998;2023-07-22T14:11:09;24.40;54.50
1453;DHT22;720;47.738;7.998;2023-07-22T14:13:34;24.60;52.20
1453;DHT22;720;47.738;7.998;2023-07-22T14:16:02;24.30;51.80
1453;DHT22;720;47.738;7.998;2023-07-22T14:18:28;24.20;52.00
1453;DHT22;720;47.738;7.998;2023-07-22T14:20:54;24.00;53.90
1453;DHT22;720;47.738;7.998;2023-07-22T14:23:20;24.20;53.20
1453;DHT22;720;47.738;7.998;2023-07-22T14:25:45;24.20;53.30
1453;DHT22;720;47.738;7.998;2023-07-22T14:28:11;24.40;54.50
1453;DHT22;720;47.738;7.998;2023-07-22T14:30:37;24.60;54.20
1453;DHT22;720;47.738;7.998;2023-07-22T14:33:02;24.30;52.80
1453;DHT22;720;47.738;7.998;2023-07-22T14:35:28;24.20;53.40
1453;DHT22;720;47.738;7.998;2023-07-22T14:37:54;24.10;55.70
1453;DHT22;720;47.738;7.998;2023-07-22T14:40:19;23.90;55.20
1453;DHT22;720;47.738;7.998;2023-07-22T14:42:45;23.90;54.40
1453;DHT22;720;47.738;7.998;2023-07-22T14:45:11;23.90;53.30
1453;DHT22;720;47.738;7.998;2023-07-22T14:47:36;23.80;56.40
1453;DHT22;720;47.738;7.998;2023-07-22T14:50:02;23.80;54.70
1453;DHT22;720;47.738;7.998;2023-07-22T14:52:28;23.90;55.10
1453;DHT22;720;47.738;7.998;2023-07-22T14:54:53;23.90;55.30
1453;DHT22;720;47.738;7.998;2023-07-22T14:57:19;23.80;71.50
1453;DHT22;720;47.738;7.998;2023-07-22T14:59:45;23.80;56.20
1453;DHT22;720;47.738;7.998;2023-07-22T15:02:12;23.80;58.30
1453;DHT22;720;47.738;7.998;2023-07-22T15:04:37;23.60;57.70
1453;DHT22;720;47.738;7.998;2023-07-22T15:07:03;23.40;57.70
1453;DHT22;720;47.738;7.998;2023-07-22T15:09:29;23.40;56.10
1453;DHT22;720;47.738;7.998;2023-07-22T15:11:54;23.40;58.20
1453;DHT22;720;47.738;7.998;2023-07-22T15:14:20;23.30;57.70
1453;DHT22;720;47.738;7.998;2023-07-22T15:16:45;23.40;58.30
1453;DHT22;720;47.738;7.998;2023-07-22T15:19:11;23.30;57.40
1453;DHT22;720;47.738;7.998;2023-07-22T15:21:37;23.30;58.00
1453;DHT22;720;47.738;7.998;2023-07-22T15:24:03;23.40;57.50
1453;DHT22;720;47.738;7.998;2023-07-22T15:26:28;23.40;60.20
1453;DHT22;720;47.738;7.998;2023-07-22T15:28:55;23.30;58.20
1453;DHT22;720;47.738;7.998;2023-07-22T15:31:21;23.20;57.70
1453;DHT22;720;47.738;7.998;2023-07-22T15:33:46;23.10;57.50
1453;DHT22;720;47.738;7.998;2023-07-22T15:36:13;23.10;56.30
1453;DHT22;720;47.738;7.998;2023-07-22T15:38:39;23.10;56.80
1453;DHT22;720;47.738;7.998;2023-07-22T15:41:04;23.10;61.60
1453;DHT22;720;47.738;7.998;2023-07-22T15:43:30;23.00;59.40
1453;DHT22;720;47.738;7.998;2023-07-22T15:45:56;23.00;59.50
1453;DHT22;720;47.738;7.998;2023-07-22T15:48:21;23.00;61.60
1453;DHT22;720;47.738;7.998;2023-07-22T15:50:47;22.70;61.30
1453;DHT22;720;47.738;7.998;2023-07-22T15:53:14;22.50;59.60
1453;DHT22;720;47.738;7.998;2023-07-22T15:55:40;22.50;58.00
1453;DHT22;720;47.738;7.998;2023-07-22T15:58:06;22.50;58.80
1453;DHT22;720;47.738;7.998;2023-07-22T16:00:31;22.50;62.40
1453;DHT22;720;47.738;7.998;2023-07-22T16:02:57;22.40;63.00
1453;DHT22;720;47.738;7.998;2023-07-22T16:05:23;22.20;63.00
1453;DHT22;720;47.738;7.998;2023-07-22T16:07:48;22.00;68.10
1453;DHT22;720;47.738;7.998;2023-07-22T16:10:14;21.80;69.00
1453;DHT22;720;47.738;7.998;2023-07-22T16:12:39;21.90;59.90
1453;DHT22;720;47.738;7.998;2023-07-22T16:15:06;21.80;68.50
1453;DHT22;720;47.738;7.998;2023-07-22T16:17:32;21.60;70.10
1453;DHT22;720;47.738;7.998;2023-07-22T16:19:58;21.50;58.60
1453;DHT22;720;47.738;7.998;2023-07-22T16:22:24;21.50;66.40
1453;DHT22;720;47.738;7.998;2023-07-22T16:24:50;21.50;67.80
1453;DHT22;720;47.738;7.998;2023-07-22T16:27:16;21.10;93.40
1453;DHT22;720;47.738;7.998;2023-07-22T16:29:41;21.20;70.50
1453;DHT22;720;47.738;7.998;2023-07-22T16:32:08;21.20;59.70
1453;DHT22;720;47.738;7.998;2023-07-22T16:34:34;21.30;59.30
1453;DHT22;720;47.738;7.998;2023-07-22T16:37:00;21.30;61.90
1453;DHT22;720;47.738;7.998;2023-07-22T16:39:26;21.30;68.30